sensor_id;sensor_type;location;lat;lon;timestamp;pressure;altitude;pressure_sealevel;temperature;humidity
69751;BME280;57335;52.288;6.056;2024-01-10T00:01:01;103309.38;;;-4.94;92.63
69751;BME280;57335;52.288;6.056;2024-01-10T00:03:29;103308.56;;;-4.96;93.15
69751;BME280;57335;52.288;6.056;2024-01-10T00:05:55;103314.47;;;-4.94;92.87
69751;BME280;57335;52.288;6.056;2024-01-10T00:08:22;103308.59;;;-4.97;92.18
69751;BME280;57335;52.288;6.056;2024-01-10T00:10:49;103295.94;;;-5.01;92.16
69751;BME280;57335;52.288;6.056;2024-01-10T00:13:16;103292.56;;;-5.03;92.09
69751;BME280;57335;52.288;6.056;2024-01-10T00:15:42;103296.88;;;-5.05;92.70
69751;BME280;57335;52.288;6.056;2024-01-10T00:18:09;103302.03;;;-5.06;93.43
69751;BME280;57335;52.288;6.056;2024-01-10T00:20:35;103299.69;;;-5.14;95.17
69751;BME280;57335;52.288;6.056;2024-01-10T00:23:02;103289.50;;;-5.15;94.86
69751;BME280;57335;52.288;6.056;2024-01-10T00:25:29;103288.81;;;-5.21;95.57
69751;BME280;57335;52.288;6.056;2024-01-10T00:27:55;103287.09;;;-5.20;95.42
69751;BME280;57335;52.288;6.056;2024-01-10T00:30:22;103284.53;;;-5.20;96.47
69751;BME280;57335;52.288;6.056;2024-01-10T00:32:48;103269.44;;;-5.29;97.78
69751;BME280;57335;52.288;6.056;2024-01-10T00:35:15;103269.53;;;-5.32;97.12
69751;BME280;57335;52.288;6.056;2024-01-10T00:37:42;103265.22;;;-5.30;97.51
69751;BME280;57335;52.288;6.056;2024-01-10T00:40:09;103273.75;;;-5.31;97.05
69751;BME280;57335;52.288;6.056;2024-01-10T00:42:36;103268.00;;;-5.39;97.83
69751;BME280;57335;52.288;6.056;2024-01-10T00:45:02;103272.09;;;-5.32;97.08
69751;BME280;57335;52.288;6.056;2024-01-10T00:47:29;103275.44;;;-5.30;97.81
69751;BME280;57335;52.288;6.056;2024-01-10T00:49:56;103255.16;;;-5.36;98.16
69751;BME280;57335;52.288;6.056;2024-01-10T00:52:23;103269.88;;;-5.45;98.55
69751;BME280;57335;52.288;6.056;2024-01-10T00:54:49;103274.19;;;-5.47;98.75
69751;BME280;57335;52.288;6.056;2024-01-10T00:57:16;103251.38;;;-5.53;99.68
69751;BME280;57335;52.288;6.056;2024-01-10T00:59:42;103264.84;;;-5.48;99.43
69751;BME280;57335;52.288;6.056;2024-01-10T01:02:09;103267.38;;;-5.48;99.79
69751;BME280;57335;52.288;6.056;2024-01-10T01:04:35;103262.25;;;-5.46;99.26
69751;BME280;57335;52.288;6.056;2024-01-10T01:07:02;103262.22;;;-5.45;99.67
69751;BME280;57335;52.288;6.056;2024-01-10T01:09:29;103262.22;;;-5.45;99.37
69751;BME280;57335;52.288;6.056;2024-01-10T01:11:55;103265.63;;;-5.46;99.97
69751;BME280;57335;52.288;6.056;2024-01-10T01:14:22;103261.50;;;-5.51;99.38
69751;BME280;57335;52.288;6.056;2024-01-10T01:16:48;103260.47;;;-5.44;99.87
69751;BME280;57335;52.288;6.056;2024-01-10T01:19:15;103259.72;;;-5.48;99.11
69751;BME280;57335;52.288;6.056;2024-01-10T01:21:42;103263.84;;;-5.42;99.88
69751;BME280;57335;52.288;6.056;2024-01-10T01:24:09;103257.09;;;-5.45;100.00
69751;BME280;57335;52.288;6.056;2024-01-10T01:26:35;103268.94;;;-5.42;99.60
69751;BME280;57335;52.288;6.056;2024-01-10T01:29:02;103268.13;;;-5.43;99.83
69751;BME280;57335;52.288;6.056;2024-01-10T01:31:29;103265.53;;;-5.41;99.97
69751;BME280;57335;52.288;6.056;2024-01-10T01:33:56;103267.22;;;-5.42;100.00
69751;BME280;57335;52.288;6.056;2024-01-10T01:36:22;103253.81;;;-5.50;100.00
69751;BME280;57335;52.288;6.056;2024-01-10T01:38:49;103254.66;;;-5.49;100.00
69751;BME280;57335;52.288;6.056;2024-01-10T01:41:15;103262.53;;;-5.57;100.00
69751;BME280;57335;52.288;6.056;2024-01-10T01:43:42;103249.84;;;-5.60;100.00
69751;BME280;57335;52.288;6.056;2024-01-10T01:46:10;103245.69;;;-5.64;100.00
69751;BME280;57335;52.288;6.056;2024-01-10T01:48:36;103259.91;;;-5.55;100.00
69751;BME280;57335;52.288;6.056;2024-01-10T01:51:07;103245.34;;;-5.52;100.00
69751;BME280;57335;52.288;6.056;2024-01-10T01:53:35;103248.13;;;-5.59;100.00
69751;BME280;57335;52.288;6.056;2024-01-10T01:56:06;103241.47;;;-5.65;100.00
69751;BME280;57335;52.288;6.056;2024-01-10T01:58:33;103240.69;;;-5.67;100.00
69751;BME280;57335;52.288;6.056;2024-01-10T02:01:02;103240.69;;;-5.67;100.00
69751;BME280;57335;52.288;6.056;2024-01-10T02:03:32;103239.78;;;-5.66;100.00
69751;BME280;57335;52.288;6.056;2024-01-10T02:06:00;103230.50;;;-5.69;100.00
69751;BME280;57335;52.288;6.056;2024-01-10T02:08:34;103233.72;;;-5.62;100.00
69751;BME280;57335;52.288;6.056;2024-01-10T02:11:02;103223.53;;;-5.64;100.00
69751;BME280;57335;52.288;6.056;2024-01-10T02:13:31;103228.56;;;-5.61;100.00
69751;BME280;57335;52.288;6.056;2024-01-10T02:15:59;103225.19;;;-5.61;100.00
69751;BME280;57335;52.288;6.056;2024-01-10T02:18:26;103218.34;;;-5.61;100.00
69751;BME280;57335;52.288;6.056;2024-01-10T02:20:52;103219.91;;;-5.55;100.00
69751;BME280;57335;52.288;6.056;2024-01-10T02:23:19;103221.59;;;-5.55;99.06
69751;BME280;57335;52.288;6.056;2024-01-10T02:25:46;103219.75;;;-5.49;98.45
69751;BME280;57335;52.288;6.056;2024-01-10T02:28:12;103224.78;;;-5.47;98.36
69751;BME280;57335;52.288;6.056;2024-01-10T02:30:39;103217.19;;;-5.49;98.73
69751;BME280;57335;52.288;6.056;2024-01-10T02:33:06;103222.28;;;-5.49;98.63
69751;BME280;57335;52.288;6.056;2024-01-10T02:35:32;103223.19;;;-5.51;98.71
69751;BME280;57335;52.288;6.056;2024-01-10T02:37:59;103207.25;;;-5.59;99.09
69751;BME280;57335;52.288;6.056;2024-01-10T02:40:26;103215.53;;;-5.51;98.99
69751;BME280;57335;52.288;6.056;2024-01-10T02:42:53;103217.34;;;-5.55;99.43
69751;BME280;57335;52.288;6.056;2024-01-10T02:45:20;103214.00;;;-5.57;98.30
69751;BME280;57335;52.288;6.056;2024-01-10T02:47:46;103213.09;;;-5.56;98.04
69751;BME280;57335;52.288;6.056;2024-01-10T02:50:13;103203.72;;;-5.55;98.20
69751;BME280;57335;52.288;6.056;2024-01-10T02:52:40;103207.94;;;-5.53;97.58
69751;BME280;57335;52.288;6.056;2024-01-10T02:55:06;103203.66;;;-5.52;97.57
69751;BME280;57335;52.288;6.056;2024-01-10T02:57:33;103202.81;;;-5.53;97.47
69751;BME280;57335;52.288;6.056;2024-01-10T03:00:00;103201.13;;;-5.54;97.28
69751;BME280;57335;52.288;6.056;2024-01-10T03:02:26;103207.06;;;-5.53;97.48
69751;BME280;57335;52.288;6.056;2024-01-10T03:04:53;103196.16;;;-5.58;97.14
69751;BME280;57335;52.288;6.056;2024-01-10T03:07:20;103201.16;;;-5.55;96.78
69751;BME280;57335;52.288;6.056;2024-01-10T03:09:47;103204.66;;;-5.58;96.00
69751;BME280;57335;52.288;6.056;2024-01-10T03:12:13;103200.31;;;-5.54;96.35
69751;BME280;57335;52.288;6.056;2024-01-10T03:14:40;103192.78;;;-5.59;97.17
69751;BME280;57335;52.288;6.056;2024-01-10T03:17:07;103200.31;;;-5.54;96.12
69751;BME280;57335;52.288;6.056;2024-01-10T03:19:33;103181.66;;;-5.58;95.82
69751;BME280;57335;52.288;6.056;2024-01-10T03:22:00;103198.44;;;-5.49;95.44
69751;BME280;57335;52.288;6.056;2024-01-10T03:24:26;103197.72;;;-5.53;95.48
69751;BME280;57335;52.288;6.056;2024-01-10T03:26:53;103189.25;;;-5.55;96.08
69751;BME280;57335;52.288;6.056;2024-01-10T03:29:20;103201.13;;;-5.54;95.94
69751;BME280;57335;52.288;6.056;2024-01-10T03:31:47;103190.09;;;-5.54;96.44
69751;BME280;57335;52.288;6.056;2024-01-10T03:34:13;103188.56;;;-5.62;96.42
69751;BME280;57335;52.288;6.056;2024-01-10T03:36:40;103187.88;;;-5.67;97.10
69751;BME280;57335;52.288;6.056;2024-01-10T03:39:07;103192.97;;;-5.67;97.48
69751;BME280;57335;52.288;6.056;2024-01-10T03:41:33;103192.06;;;-5.64;97.69
69751;BME280;57335;52.288;6.056;2024-01-10T03:44:00;103193.88;;;-5.69;97.74
69751;BME280;57335;52.288;6.056;2024-01-10T03:46:27;103189.59;;;-5.67;97.18
69751;BME280;57335;52.288;6.056;2024-01-10T03:48:53;103195.50;;;-5.65;97.32
69751;BME280;57335;52.288;6.056;2024-01-10T03:51:20;103191.25;;;-5.66;97.15
69751;BME280;57335;52.288;6.056;2024-01-10T03:53:48;103187.03;;;-5.67;96.66
69751;BME280;57335;52.288;6.056;2024-01-10T03:56:15;103186.22;;;-5.69;97.04
69751;BME280;57335;52.288;6.056;2024-01-10T03:58:42;103175.22;;;-5.71;96.58
69751;BME280;57335;52.288;6.056;2024-01-10T04:01:09;103181.88;;;-5.66;96.57
69751;BME280;57335;52.288;6.056;2024-01-10T04:03:36;103175.28;;;-5.73;96.35
69751;BME280;57335;52.288;6.056;2024-01-10T04:06:03;103174.19;;;-5.66;96.43
69751;BME280;57335;52.288;6.056;2024-01-10T04:08:30;103176.72;;;-5.64;96.66
69751;BME280;57335;52.288;6.056;2024-01-10T04:10:57;103174.19;;;-5.66;97.23
69751;BME280;57335;52.288;6.056;2024-01-10T04:13:24;103177.63;;;-5.65;97.58
69751;BME280;57335;52.288;6.056;2024-01-10T04:15:51;103183.56;;;-5.65;97.07
69751;BME280;57335;52.288;6.056;2024-01-10T04:18:17;103177.69;;;-5.68;97.51
69751;BME280;57335;52.288;6.056;2024-01-10T04:20:44;103177.69;;;-5.68;98.22
69751;BME280;57335;52.288;6.056;2024-01-10T04:23:11;103173.63;;;-5.75;98.90
69751;BME280;57335;52.288;6.056;2024-01-10T04:25:38;103162.72;;;-5.81;99.06
69751;BME280;57335;52.288;6.056;2024-01-10T04:28:05;103176.97;;;-5.73;98.76
69751;BME280;57335;52.288;6.056;2024-01-10T04:30:32;103165.91;;;-5.74;99.15
69751;BME280;57335;52.288;6.056;2024-01-10T04:32:58;103177.06;;;-5.76;99.27
69751;BME280;57335;52.288;6.056;2024-01-10T04:35:25;103171.19;;;-5.80;99.62
69751;BME280;57335;52.288;6.056;2024-01-10T04:37:52;103167.66;;;-5.74;98.63
69751;BME280;57335;52.288;6.056;2024-01-10T04:40:18;103165.84;;;-5.71;98.58
69751;BME280;57335;52.288;6.056;2024-01-10T04:42:45;103162.34;;;-5.67;98.58
69751;BME280;57335;52.288;6.056;2024-01-10T04:45:12;103166.47;;;-5.63;97.55
69751;BME280;57335;52.288;6.056;2024-01-10T04:47:39;103169.72;;;-5.57;97.77
69751;BME280;57335;52.288;6.056;2024-01-10T04:50:07;103163.09;;;-5.63;96.92
69751;BME280;57335;52.288;6.056;2024-01-10T04:52:38;103161.38;;;-5.63;96.54
69751;BME280;57335;52.288;6.056;2024-01-10T04:55:05;103163.78;;;-5.58;95.79
69751;BME280;57335;52.288;6.056;2024-01-10T04:57:32;103159.47;;;-5.56;95.37
69751;BME280;57335;52.288;6.056;2024-01-10T04:59:59;103146.88;;;-5.62;95.59
69751;BME280;57335;52.288;6.056;2024-01-10T05:02:25;103155.28;;;-5.58;95.68
69751;BME280;57335;52.288;6.056;2024-01-10T05:04:52;103160.34;;;-5.57;95.94
69751;BME280;57335;52.288;6.056;2024-01-10T05:07:18;103147.75;;;-5.63;95.81
69751;BME280;57335;52.288;6.056;2024-01-10T05:09:45;103161.22;;;-5.58;95.90
69751;BME280;57335;52.288;6.056;2024-01-10T05:12:12;103163.78;;;-5.58;95.74
69751;BME280;57335;52.288;6.056;2024-01-10T05:14:38;103156.22;;;-5.61;94.94
69751;BME280;57335;52.288;6.056;2024-01-10T05:17:06;103153.59;;;-5.59;94.78
69751;BME280;57335;52.288;6.056;2024-01-10T05:19:32;103147.75;;;-5.63;94.42
69751;BME280;57335;52.288;6.056;2024-01-10T05:21:59;103162.91;;;-5.57;94.68
69751;BME280;57335;52.288;6.056;2024-01-10T05:24:29;103150.31;;;-5.63;94.05
69751;BME280;57335;52.288;6.056;2024-01-10T05:26:56;103153.53;;;-5.56;94.09
69751;BME280;57335;52.288;6.056;2024-01-10T05:29:22;103142.41;;;-5.55;94.20
69751;BME280;57335;52.288;6.056;2024-01-10T05:31:51;103149.28;;;-5.57;94.08
69751;BME280;57335;52.288;6.056;2024-01-10T05:34:17;103147.53;;;-5.55;93.33
69751;BME280;57335;52.288;6.056;2024-01-10T05:36:44;103132.38;;;-5.62;93.48
69751;BME280;57335;52.288;6.056;2024-01-10T05:39:11;103129.38;;;-5.76;95.01
69751;BME280;57335;52.288;6.056;2024-01-10T05:41:42;103122.81;;;-5.85;95.42
69751;BME280;57335;52.288;6.056;2024-01-10T05:44:12;103125.09;;;-5.75;94.38
69751;BME280;57335;52.288;6.056;2024-01-10T05:46:39;103120.78;;;-5.73;93.94
69751;BME280;57335;52.288;6.056;2024-01-10T05:49:06;103126.84;;;-5.77;94.10
69751;BME280;57335;52.288;6.056;2024-01-10T05:51:33;103123.97;;;-5.65;93.78
69751;BME280;57335;52.288;6.056;2024-01-10T05:54:00;103121.63;;;-5.73;93.63
69751;BME280;57335;52.288;6.056;2024-01-10T05:56:26;103114.16;;;-5.79;94.78
69751;BME280;57335;52.288;6.056;2024-01-10T05:58:54;103125.09;;;-5.75;93.18
69751;BME280;57335;52.288;6.056;2024-01-10T06:01:20;103124.19;;;-5.73;93.37
69751;BME280;57335;52.288;6.056;2024-01-10T06:03:47;103123.22;;;-5.69;93.16
69751;BME280;57335;52.288;6.056;2024-01-10T06:06:14;103125.03;;;-5.72;93.09
69751;BME280;57335;52.288;6.056;2024-01-10T06:08:41;103119.00;;;-5.71;92.18
69751;BME280;57335;52.288;6.056;2024-01-10T06:11:07;103113.81;;;-5.67;92.87
69751;BME280;57335;52.288;6.056;2024-01-10T06:13:36;103109.72;;;-5.74;92.70
69751;BME280;57335;52.288;6.056;2024-01-10T06:16:18;103114.69;;;-5.69;92.23
69751;BME280;57335;52.288;6.056;2024-01-10T06:18:45;103108.00;;;-5.73;92.97
69751;BME280;57335;52.288;6.056;2024-01-10T06:21:12;103107.09;;;-5.71;93.47
69751;BME280;57335;52.288;6.056;2024-01-10T06:23:38;103108.94;;;-5.76;93.11
69751;BME280;57335;52.288;6.056;2024-01-10T06:26:05;103110.75;;;-5.79;92.00
69751;BME280;57335;52.288;6.056;2024-01-10T06:28:31;103108.09;;;-5.76;92.07
69751;BME280;57335;52.288;6.056;2024-01-10T06:30:58;103120.84;;;-5.75;92.17
69751;BME280;57335;52.288;6.056;2024-01-10T06:33:25;103114.81;;;-5.72;91.06
69751;BME280;57335;52.288;6.056;2024-01-10T06:35:52;103120.09;;;-5.78;91.00
69751;BME280;57335;52.288;6.056;2024-01-10T06:38:19;103121.66;;;-5.74;91.25
69751;BME280;57335;52.288;6.056;2024-01-10T06:40:47;103127.41;;;-5.66;90.39
69751;BME280;57335;52.288;6.056;2024-01-10T06:43:14;103108.91;;;-5.74;89.63
69751;BME280;57335;52.288;6.056;2024-01-10T06:45:42;103130.00;;;-5.68;89.78
69751;BME280;57335;52.288;6.056;2024-01-10T06:48:09;103118.94;;;-5.68;89.91
69751;BME280;57335;52.288;6.056;2024-01-10T06:50:36;103114.00;;;-5.74;89.61
69751;BME280;57335;52.288;6.056;2024-01-10T06:53:03;103122.50;;;-5.74;90.44
69751;BME280;57335;52.288;6.056;2024-01-10T06:55:30;103115.84;;;-5.79;90.81
69751;BME280;57335;52.288;6.056;2024-01-10T06:57:56;103111.09;;;-5.92;91.70
69751;BME280;57335;52.288;6.056;2024-01-10T07:00:23;103111.88;;;-5.90;91.48
69751;BME280;57335;52.288;6.056;2024-01-10T07:02:50;103112.75;;;-5.89;90.79
69751;BME280;57335;52.288;6.056;2024-01-10T07:05:16;103115.22;;;-5.88;91.33
69751;BME280;57335;52.288;6.056;2024-01-10T07:07:43;103124.59;;;-5.88;92.04
69751;BME280;57335;52.288;6.056;2024-01-10T07:10:10;103117.78;;;-5.88;92.15
69751;BME280;57335;52.288;6.056;2024-01-10T07:12:37;103118.94;;;-5.98;92.43
69751;BME280;57335;52.288;6.056;2024-01-10T07:15:04;103102.19;;;-6.07;92.31
69751;BME280;57335;52.288;6.056;2024-01-10T07:17:31;103110.59;;;-6.03;91.79
69751;BME280;57335;52.288;6.056;2024-01-10T07:19:58;103107.00;;;-5.97;91.91
69751;BME280;57335;52.288;6.056;2024-01-10T07:22:24;103114.56;;;-5.94;93.26
69751;BME280;57335;52.288;6.056;2024-01-10T07:24:51;103109.66;;;-6.00;92.29
69751;BME280;57335;52.288;6.056;2024-01-10T07:27:17;103123.06;;;-5.94;92.22
69751;BME280;57335;52.288;6.056;2024-01-10T07:29:45;103127.16;;;-5.88;91.36
69751;BME280;57335;52.288;6.056;2024-01-10T07:32:12;103137.13;;;-5.79;90.81
69751;BME280;57335;52.288;6.056;2024-01-10T07:34:40;103133.00;;;-5.83;89.16
69751;BME280;57335;52.288;6.056;2024-01-10T07:37:07;103140.59;;;-5.82;91.08
69751;BME280;57335;52.288;6.056;2024-01-10T07:39:35;103133.72;;;-5.79;90.21
69751;BME280;57335;52.288;6.056;2024-01-10T07:42:02;103135.31;;;-5.75;90.25
69751;BME280;57335;52.288;6.056;2024-01-10T07:44:29;103131.88;;;-5.74;89.18
69751;BME280;57335;52.288;6.056;2024-01-10T07:46:56;103122.53;;;-5.75;89.15
69751;BME280;57335;52.288;6.056;2024-01-10T07:49:22;103135.97;;;-5.67;88.49
69751;BME280;57335;52.288;6.056;2024-01-10T07:51:50;103141.06;;;-5.67;87.41
69751;BME280;57335;52.288;6.056;2024-01-10T07:54:17;103127.38;;;-5.65;87.15
69751;BME280;57335;52.288;6.056;2024-01-10T07:56:43;103119.75;;;-5.66;87.06
69751;BME280;57335;52.288;6.056;2024-01-10T07:59:10;103141.50;;;-5.53;86.59
69751;BME280;57335;52.288;6.056;2024-01-10T08:01:44;103145.66;;;-5.49;85.79
69751;BME280;57335;52.288;6.056;2024-01-10T08:04:11;103144.00;;;-5.51;84.42
69751;BME280;57335;52.288;6.056;2024-01-10T08:06:41;103155.56;;;-5.39;84.96
69751;BME280;57335;52.288;6.056;2024-01-10T08:09:08;103157.22;;;-5.37;82.76
69751;BME280;57335;52.288;6.056;2024-01-10T08:11:38;103154.53;;;-5.32;82.48
69751;BME280;57335;52.288;6.056;2024-01-10T08:14:04;103145.84;;;-5.27;82.99
69751;BME280;57335;52.288;6.056;2024-01-10T08:16:31;103151.81;;;-5.28;83.46
69751;BME280;57335;52.288;6.056;2024-01-10T08:18:58;103149.94;;;-5.21;82.88
69751;BME280;57335;52.288;6.056;2024-01-10T08:21:25;103160.09;;;-5.19;82.05
69751;BME280;57335;52.288;6.056;2024-01-10T08:23:52;103160.66;;;-5.10;81.25
69751;BME280;57335;52.288;6.056;2024-01-10T08:26:19;103154.75;;;-5.12;81.22
69751;BME280;57335;52.288;6.056;2024-01-10T08:28:45;103152.81;;;-5.04;80.54
69751;BME280;57335;52.288;6.056;2024-01-10T08:31:12;103157.66;;;-4.94;80.55
69751;BME280;57335;52.288;6.056;2024-01-10T08:33:42;103153.41;;;-4.95;81.18
69751;BME280;57335;52.288;6.056;2024-01-10T08:36:09;103139.75;;;-4.94;79.08
69751;BME280;57335;52.288;6.056;2024-01-10T08:38:39;103149.00;;;-4.90;79.55
69751;BME280;57335;52.288;6.056;2024-01-10T08:41:07;103141.88;;;-4.81;78.96
69751;BME280;57335;52.288;6.056;2024-01-10T08:43:34;103135.72;;;-4.75;78.93
69751;BME280;57335;52.288;6.056;2024-01-10T08:46:00;103145.81;;;-4.70;77.79
69751;BME280;57335;52.288;6.056;2024-01-10T08:48:27;103149.94;;;-4.66;76.84
69751;BME280;57335;52.288;6.056;2024-01-10T08:50:53;103149.75;;;-4.60;76.33
69751;BME280;57335;52.288;6.056;2024-01-10T08:53:22;103144.47;;;-4.55;76.56
69751;BME280;57335;52.288;6.056;2024-01-10T08:55:49;103148.66;;;-4.53;76.11
69751;BME280;57335;52.288;6.056;2024-01-10T08:58:16;103147.59;;;-4.47;76.06
69751;BME280;57335;52.288;6.056;2024-01-10T09:00:42;103145.78;;;-4.44;75.99
69751;BME280;57335;52.288;6.056;2024-01-10T09:03:09;103151.56;;;-4.37;74.91
69751;BME280;57335;52.288;6.056;2024-01-10T09:05:35;103144.34;;;-4.26;74.41
69751;BME280;57335;52.288;6.056;2024-01-10T09:08:03;103142.47;;;-4.21;75.16
69751;BME280;57335;52.288;6.056;2024-01-10T09:10:30;103127.97;;;-4.22;73.84
69751;BME280;57335;52.288;6.056;2024-01-10T09:12:58;103145.56;;;-4.11;72.56
69751;BME280;57335;52.288;6.056;2024-01-10T09:15:25;103133.34;;;-4.04;73.15
69751;BME280;57335;52.288;6.056;2024-01-10T09:17:52;103135.00;;;-4.03;72.81
69751;BME280;57335;52.288;6.056;2024-01-10T09:20:18;103138.03;;;-3.92;71.75
69751;BME280;57335;52.288;6.056;2024-01-10T09:22:47;103137.78;;;-3.84;69.30
69751;BME280;57335;52.288;6.056;2024-01-10T09:25:15;103139.34;;;-3.80;68.60
69751;BME280;57335;52.288;6.056;2024-01-10T09:27:42;103138.94;;;-3.69;71.15
69751;BME280;57335;52.288;6.056;2024-01-10T09:30:11;103125.38;;;-3.73;68.18
69751;BME280;57335;52.288;6.056;2024-01-10T09:32:38;103128.53;;;-3.65;69.45
69751;BME280;57335;52.288;6.056;2024-01-10T09:35:06;103125.06;;;-3.64;68.71
69751;BME280;57335;52.288;6.056;2024-01-10T09:37:33;103132.28;;;-3.51;68.07
69751;BME280;57335;52.288;6.056;2024-01-10T09:40:00;103128.66;;;-3.46;67.58
69751;BME280;57335;52.288;6.056;2024-01-10T09:42:27;103130.94;;;-3.38;69.40
69751;BME280;57335;52.288;6.056;2024-01-10T09:44:59;103125.88;;;-3.39;67.73
69751;BME280;57335;52.288;6.056;2024-01-10T09:47:27;103129.88;;;-3.32;66.89
69751;BME280;57335;52.288;6.056;2024-01-10T09:49:54;103131.38;;;-3.27;65.92
69751;BME280;57335;52.288;6.056;2024-01-10T09:52:25;103142.88;;;-3.15;65.99
69751;BME280;57335;52.288;6.056;2024-01-10T09:54:56;103136.72;;;-3.11;66.43
69751;BME280;57335;52.288;6.056;2024-01-10T09:57:23;103135.50;;;-3.01;65.89
69751;BME280;57335;52.288;6.056;2024-01-10T09:59:52;103139.38;;;-2.90;65.94
69751;BME280;57335;52.288;6.056;2024-01-10T10:02:19;103129.63;;;-2.82;64.08
69751;BME280;57335;52.288;6.056;2024-01-10T10:05:15;103130.03;;;-2.71;64.97
69751;BME280;57335;52.288;6.056;2024-01-10T10:07:49;103133.97;;;-2.62;65.74
69751;BME280;57335;52.288;6.056;2024-01-10T10:10:17;103126.72;;;-2.52;63.17
69751;BME280;57335;52.288;6.056;2024-01-10T10:12:46;103145.13;;;-2.43;64.26
69751;BME280;57335;52.288;6.056;2024-01-10T10:15:17;103149.09;;;-2.35;63.54
69751;BME280;57335;52.288;6.056;2024-01-10T10:17:46;103136.16;;;-2.32;62.41
69751;BME280;57335;52.288;6.056;2024-01-10T10:20:19;103140.16;;;-2.27;63.07
69751;BME280;57335;52.288;6.056;2024-01-10T10:25:30;103135.38;;;-2.14;62.04
69751;BME280;57335;52.288;6.056;2024-01-10T10:28:01;103137.94;;;-2.14;61.42
69751;BME280;57335;52.288;6.056;2024-01-10T10:30:30;103133.34;;;-2.07;60.32
69751;BME280;57335;52.288;6.056;2024-01-10T10:32:57;103137.59;;;-2.06;60.95
69751;BME280;57335;52.288;6.056;2024-01-10T10:35:24;103128.88;;;-2.02;60.32
69751;BME280;57335;52.288;6.056;2024-01-10T10:38:07;103133.69;;;-1.94;60.89
69751;BME280;57335;52.288;6.056;2024-01-10T10:40:36;103128.16;;;-1.87;60.27
69751;BME280;57335;52.288;6.056;2024-01-10T10:43:03;103117.88;;;-1.87;60.27
69751;BME280;57335;52.288;6.056;2024-01-10T10:45:31;103125.00;;;-1.73;60.29
69751;BME280;57335;52.288;6.056;2024-01-10T10:48:01;103110.91;;;-1.64;58.60
69751;BME280;57335;52.288;6.056;2024-01-10T10:50:33;103111.78;;;-1.65;59.24
69751;BME280;57335;52.288;6.056;2024-01-10T10:53:02;103120.91;;;-1.58;59.24
69751;BME280;57335;52.288;6.056;2024-01-10T10:55:31;103123.31;;;-1.55;58.31
69751;BME280;57335;52.288;6.056;2024-01-10T10:57:57;103114.56;;;-1.51;58.93
69751;BME280;57335;52.288;6.056;2024-01-10T11:00:34;103123.63;;;-1.42;58.45
69751;BME280;57335;52.288;6.056;2024-01-10T11:03:03;103122.41;;;-1.35;57.72
69751;BME280;57335;52.288;6.056;2024-01-10T11:05:31;103120.31;;;-1.27;57.47
69751;BME280;57335;52.288;6.056;2024-01-10T11:07:58;103105.44;;;-1.20;57.10
69751;BME280;57335;52.288;6.056;2024-01-10T11:10:32;103101.81;;;-1.16;56.50
69751;BME280;57335;52.288;6.056;2024-01-10T11:23:54;103103.03;;;-0.88;56.12
69751;BME280;57335;52.288;6.056;2024-01-10T11:26:22;103111.81;;;-0.92;56.45
69751;BME280;57335;52.288;6.056;2024-01-10T11:28:50;103115.00;;;-0.87;56.40
69751;BME280;57335;52.288;6.056;2024-01-10T11:31:27;103104.66;;;-0.86;55.54
69751;BME280;57335;52.288;6.056;2024-01-10T11:33:55;103098.75;;;-0.88;57.33
69751;BME280;57335;52.288;6.056;2024-01-10T11:36:22;103099.88;;;-0.76;55.63
69751;BME280;57335;52.288;6.056;2024-01-10T11:41:30;103095.78;;;-0.80;56.52
69751;BME280;57335;52.288;6.056;2024-01-10T11:49:12;103080.25;;;-0.96;55.88
69751;BME280;57335;52.288;6.056;2024-01-10T11:51:43;103087.59;;;-0.88;55.59
69751;BME280;57335;52.288;6.056;2024-01-10T11:57:02;103090.03;;;-0.85;55.60
69751;BME280;57335;52.288;6.056;2024-01-10T11:59:30;103086.06;;;-0.75;55.50
69751;BME280;57335;52.288;6.056;2024-01-10T12:01:58;103081.38;;;-0.67;56.01
69751;BME280;57335;52.288;6.056;2024-01-10T12:04:25;103074.34;;;-0.63;55.66
69751;BME280;57335;52.288;6.056;2024-01-10T12:07:12;103085.59;;;-0.48;56.46
69751;BME280;57335;52.288;6.056;2024-01-10T12:09:39;103094.25;;;-0.49;54.32
69751;BME280;57335;52.288;6.056;2024-01-10T12:12:06;103075.78;;;-0.57;54.91
69751;BME280;57335;52.288;6.056;2024-01-10T12:14:34;103073.13;;;-0.73;54.29
69751;BME280;57335;52.288;6.056;2024-01-10T12:17:00;103085.16;;;-0.56;56.42
69751;BME280;57335;52.288;6.056;2024-01-10T12:19:27;103083.34;;;-0.54;55.70
69751;BME280;57335;52.288;6.056;2024-01-10T12:21:54;103078.19;;;-0.54;55.95
69751;BME280;57335;52.288;6.056;2024-01-10T12:24:20;103084.03;;;-0.68;55.37
69751;BME280;57335;52.288;6.056;2024-01-10T12:26:48;103075.66;;;-0.72;55.55
69751;BME280;57335;52.288;6.056;2024-01-10T12:29:18;103079.56;;;-0.65;54.99
69751;BME280;57335;52.288;6.056;2024-01-10T12:31:47;103069.13;;;-0.62;54.91
69751;BME280;57335;52.288;6.056;2024-01-10T12:34:14;103077.44;;;-0.56;54.42
69751;BME280;57335;52.288;6.056;2024-01-10T12:36:42;103066.06;;;-0.52;55.34
69751;BME280;57335;52.288;6.056;2024-01-10T12:39:12;103060.25;;;-0.56;55.95
69751;BME280;57335;52.288;6.056;2024-01-10T12:41:40;103062.97;;;-0.59;54.30
69751;BME280;57335;52.288;6.056;2024-01-10T12:44:07;103063.59;;;-0.54;54.17
69751;BME280;57335;52.288;6.056;2024-01-10T12:46:33;103066.31;;;-0.57;53.93
69751;BME280;57335;52.288;6.056;2024-01-10T12:49:06;103063.97;;;-0.62;54.41
69751;BME280;57335;52.288;6.056;2024-01-10T12:51:34;103058.66;;;-0.58;53.17
69751;BME280;57335;52.288;6.056;2024-01-10T12:54:04;103057.44;;;-0.51;53.39
69751;BME280;57335;52.288;6.056;2024-01-10T12:56:30;103057.50;;;-0.53;53.16
69751;BME280;57335;52.288;6.056;2024-01-10T12:58:58;103054.81;;;-0.67;53.82
69751;BME280;57335;52.288;6.056;2024-01-10T13:01:25;103057.00;;;-0.59;52.78
69751;BME280;57335;52.288;6.056;2024-01-10T13:03:52;103057.38;;;-0.50;51.82
69751;BME280;57335;52.288;6.056;2024-01-10T13:06:19;103050.47;;;-0.49;53.22
69751;BME280;57335;52.288;6.056;2024-01-10T13:08:49;103051.28;;;-0.49;52.41
69751;BME280;57335;52.288;6.056;2024-01-10T13:11:16;103047.59;;;-0.61;53.54
69751;BME280;57335;52.288;6.056;2024-01-10T13:13:43;103041.16;;;-0.52;52.99
69751;BME280;57335;52.288;6.056;2024-01-10T13:16:10;103049.47;;;-0.47;52.83